Time;durP1;ratioP1;P1;durP2;ratioP2;P2;SDS_P1;SDS_P2;PMS_P1;PMS_P2;Temp;Humidity;BMP_temperature;BMP_pressure;BME280_temperature;BME280_humidity;BME280_pressure;Samples;Min_cycle;Max_cycle;Signal;HPM_P1;HPM_P2
2022/08/24 00:00:11;;;;;;;4.72;3.83;;;17.80;71.10;;;16.98;88.72;96215.31;4992438;28;20029;-65
2022/08/24 00:02:37;;;;;;;6.60;4.97;;;17.70;71.20;;;16.93;88.58;96209.03;5010684;28;20120;-65
2022/08/24 00:05:03;;;;;;;5.93;4.65;;;17.70;71.60;;;16.88;88.34;96209.72;5017336;28;20120;-64
2022/08/24 00:07:30;;;;;;;5.63;3.75;;;17.60;71.80;;;16.83;88.62;96210.38;5019420;28;20075;-65
2022/08/24 00:09:56;;;;;;;5.15;4.18;;;17.60;71.90;;;16.79;88.70;96219.03;5007145;28;20044;-65
2022/08/24 00:12:22;;;;;;;5.90;4.30;;;17.60;72.00;;;16.75;89.42;96207.25;5011044;28;20057;-65
2022/08/24 00:14:47;;;;;;;4.90;4.03;;;17.60;72.10;;;16.72;89.99;96215.63;5011313;28;20112;-64
2022/08/24 00:17:13;;;;;;;5.95;4.30;;;17.50;72.20;;;16.65;89.58;96207.75;5006840;28;20508;-65
2022/08/24 00:19:39;;;;;;;4.78;3.92;;;17.40;72.40;;;16.62;90.22;96210.03;4992457;28;20509;-65
2022/08/24 00:22:05;;;;;;;5.28;4.25;;;17.40;72.60;;;16.57;90.82;96212.56;5000084;28;20041;-65
2022/08/24 00:24:31;;;;;;;4.70;4.18;;;17.30;72.80;;;16.52;90.75;96208.72;4986676;28;20034;-65
2022/08/24 00:26:57;;;;;;;7.05;4.03;;;17.30;73.00;;;16.46;90.55;96206.13;5025749;28;20113;-64
2022/08/24 00:29:23;;;;;;;5.85;4.20;;;17.20;73.10;;;16.39;91.88;96208.88;5029058;28;20529;-65
2022/08/24 00:31:48;;;;;;;5.22;4.50;;;17.10;73.40;;;16.34;91.52;96208.75;5028043;28;20473;-64
2022/08/24 00:34:16;;;;;;;5.50;4.20;;;17.10;73.70;;;16.33;92.21;96211.63;5026724;28;20456;-65
2022/08/24 00:36:42;;;;;;;7.35;4.85;;;17.10;73.70;;;16.30;92.28;96214.72;5019918;28;20430;-64
2022/08/24 00:39:08;;;;;;;5.78;4.90;;;17.10;73.80;;;16.27;93.02;96220.44;4987557;28;20041;-65
2022/08/24 00:41:34;;;;;;;8.93;5.00;;;17.10;73.90;;;16.19;93.36;96216.25;4978667;28;20052;-65
2022/08/24 00:44:03;;;;;;;5.05;4.38;;;17.00;74.20;;;16.14;93.09;96208.97;5016773;28;20041;-64
2022/08/24 00:46:54;;;;;;;6.15;4.30;;;17.00;74.10;;;16.11;94.67;96219.22;4991016;28;20777;-65
2022/08/24 00:49:41;;;;;;;4.95;4.32;;;16.90;74.20;;;16.05;95.75;96212.91;5003025;28;20073;-65
2022/08/24 00:52:18;;;;;;;7.05;4.82;;;16.80;74.20;;;16.01;94.81;96211.75;5006094;28;20040;-65
2022/08/24 00:54:57;;;;;;;6.20;5.20;;;16.80;74.50;;;16.00;95.94;96209.31;5002966;28;20501;-64
2022/08/24 00:57:27;;;;;;;5.90;5.32;;;16.80;74.90;;;15.96;95.82;96213.44;5007589;28;20524;-65
2022/08/24 00:59:57;;;;;;;6.38;4.80;;;16.70;75.20;;;15.93;95.21;96214.69;4999779;28;20040;-65
2022/08/24 01:02:31;;;;;;;6.63;5.67;;;16.80;75.10;;;15.92;96.28;96207.75;5009507;28;20056;-65
2022/08/24 01:05:01;;;;;;;7.18;5.43;;;16.80;75.00;;;15.91;96.88;96209.59;5024464;28;20512;-65
2022/08/24 01:07:29;;;;;;;5.90;5.25;;;16.70;75.30;;;15.88;96.34;96206.59;4996997;28;20084;-64
2022/08/24 01:09:59;;;;;;;7.28;5.13;;;16.70;75.50;;;15.89;97.12;96211.66;5016966;28;20033;-65
2022/08/24 01:12:26;;;;;;;6.18;5.50;;;16.80;75.50;;;15.90;96.34;96215.13;5011033;28;20034;-65
2022/08/24 01:14:52;;;;;;;6.38;5.32;;;16.80;75.50;;;15.88;96.97;96207.41;4990056;28;20180;-65
2022/08/24 01:20:03;;;;;;;7.13;5.85;;;16.70;75.40;;;15.86;97.05;96204.16;5022445;28;20083;-64
2022/08/24 01:22:50;;;;;;;7.63;6.13;;;16.70;75.30;;;15.84;97.57;96211.53;5001834;28;20030;-64
2022/08/24 01:25:16;;;;;;;6.00;5.40;;;16.70;75.30;;;15.78;96.41;96212.38;5020704;28;20133;-65
2022/08/24 01:27:42;;;;;;;6.28;5.40;;;16.60;75.50;;;15.74;96.08;96216.50;5020178;28;20120;-64
2022/08/24 01:30:12;;;;;;;4.68;4.07;;;16.60;75.00;;;15.65;96.71;96215.16;5010812;28;20042;-64
2022/08/24 01:32:39;;;;;;;4.60;3.28;;;16.40;74.90;;;15.57;95.77;96210.09;4992473;28;20053;-64
2022/08/24 01:35:05;;;;;;;4.25;3.85;;;16.30;74.90;;;15.50;95.17;96210.16;5006845;28;20034;-64
2022/08/24 01:37:31;;;;;;;4.32;3.50;;;16.20;74.70;;;15.46;95.58;96208.16;5020961;28;20037;-64
2022/08/24 01:39:57;;;;;;;5.47;4.07;;;16.30;74.80;;;15.42;95.05;96204.31;4990808;28;20022;-64
2022/08/24 01:42:25;;;;;;;5.30;3.33;;;16.30;74.70;;;15.40;96.06;96204.53;4996986;28;20034;-64
2022/08/24 01:44:51;;;;;;;5.82;3.55;;;16.20;74.50;;;15.38;95.49;96211.06;4995256;28;20080;-64
2022/08/24 01:47:16;;;;;;;5.32;3.58;;;16.20;74.70;;;15.30;96.14;96197.06;4992165;28;20074;-65
2022/08/24 01:49:45;;;;;;;4.05;3.40;;;16.10;75.00;;;15.28;96.11;96199.13;5016867;28;20065;-64
2022/08/24 01:52:19;;;;;;;4.50;3.83;;;16.20;75.00;;;15.26;96.64;96201.16;4994649;28;20038;-64
2022/08/24 01:54:45;;;;;;;5.38;3.78;;;16.10;75.20;;;15.24;95.88;96200.56;5023653;28;20033;-64
2022/08/24 01:57:11;;;;;;;4.85;3.78;;;16.10;75.10;;;15.23;96.83;96198.97;4995599;28;20049;-65
2022/08/24 01:59:37;;;;;;;6.65;3.55;;;16.10;75.20;;;15.22;96.89;96199.19;5023599;28;20038;-64
2022/08/24 02:02:24;;;;;;;5.18;3.72;;;16.10;75.10;;;15.20;97.46;96199.38;5008129;28;20592;-64
2022/08/24 02:04:50;;;;;;;5.20;3.47;;;16.10;75.00;;;15.16;96.61;96198.19;5019406;28;20087;-64
2022/08/24 02:07:17;;;;;;;5.35;4.07;;;16.10;75.30;;;15.14;96.43;96200.22;5006161;28;20074;-64
2022/08/24 02:09:42;;;;;;;4.57;3.85;;;16.00;75.50;;;15.13;97.22;96197.78;5021937;28;20056;-65
2022/08/24 02:12:08;;;;;;;4.85;3.83;;;16.00;75.70;;;15.12;97.82;96201.47;5011231;28;20037;-64
2022/08/24 02:14:36;;;;;;;5.68;4.22;;;16.00;75.80;;;15.10;98.13;96201.69;5026003;28;20103;-64
2022/08/24 02:17:03;;;;;;;4.82;4.32;;;16.00;75.70;;;15.07;97.00;96207.41;5008249;28;20037;-64
2022/08/24 02:19:29;;;;;;;6.47;4.13;;;16.00;75.70;;;15.06;97.49;96203.16;5023857;28;20441;-65
2022/08/24 02:21:54;;;;;;;5.63;4.80;;;16.00;75.80;;;15.04;97.59;96210.50;4992469;28;20037;-64
2022/08/24 02:24:20;;;;;;;4.82;4.32;;;15.90;75.80;;;15.01;98.56;96209.09;5007818;28;20065;-65
2022/08/24 02:26:46;;;;;;;6.72;4.53;;;15.90;76.10;;;15.01;98.43;96210.94;5021211;28;20416;-64
2022/08/24 02:29:12;;;;;;;5.65;4.93;;;15.90;76.10;;;14.96;98.47;96203.63;5006665;28;20458;-64
2022/08/24 02:31:38;;;;;;;6.15;4.80;;;15.90;76.30;;;14.96;99.16;96203.63;5026876;28;20853;-65
2022/08/24 02:34:03;;;;;;;5.25;4.75;;;15.90;76.10;;;14.94;98.92;96210.16;5025905;28;20442;-64
2022/08/24 02:36:30;;;;;;;5.05;4.55;;;15.80;75.90;;;14.88;98.64;96205.72;5025284;28;20948;-64
2022/08/24 02:38:55;;;;;;;4.43;4.03;;;15.70;76.10;;;14.85;99.46;96206.13;5020051;28;20038;-64
2022/08/24 02:41:23;;;;;;;5.70;3.90;;;15.70;76.00;;;14.82;99.22;96207.38;5013189;28;20037;-64
2022/08/24 02:43:49;;;;;;;4.55;3.65;;;15.70;75.90;;;14.80;98.10;96205.97;5004709;28;20060;-64
2022/08/24 02:46:24;;;;;;;4.35;3.78;;;15.70;76.10;;;14.77;99.63;96209.84;5022289;28;20096;-67
2022/08/24 02:48:49;;;;;;;4.75;4.03;;;15.70;75.90;;;14.76;99.32;96207.41;5007039;28;20029;-64
2022/08/24 02:51:27;;;;;;;3.97;3.58;;;15.70;75.80;;;14.76;99.52;96215.38;5003214;28;20044;-64
2022/08/24 02:53:53;;;;;;;5.95;3.70;;;15.60;75.80;;;14.73;99.08;96213.16;5039964;28;20853;-64
2022/08/24 02:56:19;;;;;;;5.55;4.03;;;15.60;75.90;;;14.69;99.22;96210.06;5020237;28;20182;-68
2022/08/24 02:58:46;;;;;;;7.35;4.82;;;15.70;75.80;;;14.67;98.53;96210.28;5026641;28;20243;-64
2022/08/24 03:01:12;;;;;;;5.50;4.60;;;15.60;76.00;;;14.64;98.98;96205.44;5025681;28;20033;-65
2022/08/24 03:03:37;;;;;;;5.38;4.82;;;15.60;76.30;;;14.64;99.19;96210.72;5024334;28;20327;-64
2022/08/24 03:06:04;;;;;;;7.85;4.95;;;15.60;76.30;;;14.61;99.52;96208.50;5006117;28;20064;-64
2022/08/24 03:08:30;;;;;;;6.35;5.05;;;15.60;76.30;;;14.60;99.45;96208.72;4984531;28;20204;-64
2022/08/24 03:10:59;;;;;;;5.47;4.95;;;15.60;76.30;;;14.59;100.00;96217.69;5029180;28;20033;-64
2022/08/24 03:13:29;;;;;;;5.93;4.60;;;15.60;76.20;;;14.57;99.87;96209.94;5027235;28;20064;-64
2022/08/24 03:15:55;;;;;;;5.57;4.72;;;15.60;76.30;;;14.55;99.46;96213.84;4985340;28;20493;-64
2022/08/24 03:18:21;;;;;;;7.55;5.18;;;15.50;76.50;;;14.52;99.15;96212.44;5009825;28;20033;-64
2022/08/24 03:20:48;;;;;;;5.93;5.30;;;15.50;76.50;;;14.50;99.56;96203.06;5029129;28;20030;-64
2022/08/24 03:23:14;;;;;;;8.07;5.75;;;15.50;76.60;;;14.46;100.00;96207.94;5024760;28;20041;-64
2022/08/24 03:25:40;;;;;;;5.95;5.10;;;15.40;76.80;;;14.42;100.00;96206.72;5011259;28;20029;-64
2022/08/24 03:28:06;;;;;;;6.18;5.57;;;15.30;77.00;;;14.40;100.00;96206.94;4999196;28;20122;-64
2022/08/24 03:30:31;;;;;;;6.80;6.10;;;15.30;77.10;;;14.39;100.00;96207.16;5011217;28;20045;-64
2022/08/24 03:32:57;;;;;;;6.70;5.45;;;15.30;77.00;;;14.35;100.00;96213.88;4996116;28;20040;-64
2022/08/24 03:35:23;;;;;;;8.85;6.10;;;15.30;77.00;;;14.32;100.00;96211.66;5004215;28;20510;-64
2022/08/24 03:37:49;;;;;;;7.55;5.70;;;15.20;77.00;;;14.30;100.00;96213.69;5009056;28;20025;-64
2022/08/24 03:40:15;;;;;;;6.05;5.40;;;15.20;77.00;;;14.28;100.00;96215.75;5025732;28;20520;-64
2022/08/24 03:42:41;;;;;;;7.05;6.18;;;15.20;77.00;;;14.27;100.00;96224.72;5022966;28;20021;-64
2022/08/24 03:45:08;;;;;;;7.05;6.22;;;15.20;77.00;;;14.24;100.00;96214.53;4983642;28;20064;-64
2022/08/24 03:47:33;;;;;;;6.95;6.22;;;15.20;77.30;;;14.23;100.00;96223.47;5021596;28;20046;-64
2022/08/24 03:49:59;;;;;;;7.97;7.13;;;15.20;77.50;;;14.23;100.00;96223.47;4994057;28;20061;-63
2022/08/24 03:52:25;;;;;;;8.43;6.97;;;15.20;77.80;;;14.22;100.00;96224.50;4982990;28;20123;-68
2022/08/24 03:54:51;;;;;;;9.02;8.13;;;15.20;78.10;;;14.20;100.00;96226.53;5008200;28;20312;-67
2022/08/24 03:57:17;;;;;;;8.45;7.07;;;15.20;78.20;;;14.20;100.00;96226.53;5009609;28;20113;-67
2022/08/24 03:59:42;;;;;;;7.53;6.82;;;15.20;78.10;;;14.20;100.00;96231.84;5030369;28;20120;-67
2022/08/24 04:02:08;;;;;;;7.72;6.93;;;15.20;77.80;;;14.20;100.00;96226.53;5031741;28;20069;-68
2022/08/24 04:04:34;;;;;;;9.20;7.40;;;15.20;77.80;;;14.21;100.00;96220.22;4995373;28;20073;-68
2022/08/24 04:07:00;;;;;;;10.13;7.57;;;15.20;78.00;;;14.19;100.00;96223.09;5018161;28;20100;-67
2022/08/24 04:09:26;;;;;;;10.45;7.30;;;15.20;78.30;;;14.20;100.00;96221.25;5011170;28;20134;-67
2022/08/24 04:11:51;;;;;;;10.50;8.15;;;15.20;78.30;;;14.17;100.00;96229.59;5030494;28;20033;-67
2022/08/24 04:14:18;;;;;;;9.65;7.60;;;15.10;78.20;;;14.16;100.00;96223.50;5028798;28;20113;-67
2022/08/24 04:16:44;;;;;;;10.30;8.23;;;15.10;78.20;;;14.14;100.00;96219.44;5002241;28;20034;-67
2022/08/24 04:19:11;;;;;;;8.05;7.25;;;15.10;78.20;;;14.10;100.00;96225.16;4993376;28;20143;-66
2022/08/24 04:21:37;;;;;;;9.00;7.05;;;15.10;78.00;;;14.09;100.00;96228.81;5014184;28;20045;-67
2022/08/24 04:24:05;;;;;;;9.38;8.40;;;15.10;78.00;;;14.10;100.00;96229.63;5013140;28;20112;-67
2022/08/24 04:26:30;;;;;;;9.23;8.18;;;15.10;78.20;;;14.10;100.00;96224.34;4997826;28;20044;-67
2022/08/24 04:28:56;;;;;;;10.52;9.43;;;15.10;78.20;;;14.12;100.00;96221.50;5021023;28;20026;-67
2022/08/24 04:31:23;;;;;;;12.35;9.60;;;15.20;78.40;;;14.14;100.00;96219.44;4993732;28;20052;-67
2022/08/24 04:33:49;;;;;;;12.25;10.48;;;15.20;78.30;;;14.12;100.00;96224.13;5026518;28;20038;-67
2022/08/24 04:36:17;;;;;;;10.65;9.43;;;15.20;78.40;;;14.14;100.00;96230.03;5010242;28;20034;-67
2022/08/24 04:38:43;;;;;;;11.23;10.13;;;15.30;78.30;;;14.15;100.00;96227.19;5013916;28;20409;-68
2022/08/24 04:41:13;;;;;;;11.52;10.32;;;15.20;78.50;;;14.15;100.00;96226.38;5029698;28;20041;-67
2022/08/24 04:43:41;;;;;;;10.57;9.60;;;15.20;78.40;;;14.14;100.00;96222.09;4997530;28;20124;-67
2022/08/24 04:46:07;;;;;;;11.18;9.63;;;15.20;78.50;;;14.14;100.00;96225.56;5013786;28;20041;-67
2022/08/24 04:48:34;;;;;;;10.13;9.18;;;15.20;78.40;;;14.16;100.00;96241.22;5011931;28;20030;-67
2022/08/24 04:51:04;;;;;;;11.02;9.95;;;15.30;78.40;;;14.15;100.00;96244.88;5014346;28;20061;-67
2022/08/24 04:53:30;;;;;;;12.50;10.48;;;15.30;78.90;;;14.16;100.00;96239.38;5028585;28;20049;-67
2022/08/24 04:55:56;;;;;;;10.52;9.50;;;15.30;79.30;;;14.17;100.00;96241.00;5029638;28;20041;-67
2022/08/24 04:58:22;;;;;;;11.57;10.50;;;15.30;79.50;;;14.21;100.00;96241.41;5028475;28;20116;-67
2022/08/24 05:00:47;;;;;;;12.05;10.85;;;15.40;79.40;;;14.22;100.00;96248.31;5028572;28;20030;-67
2022/08/24 05:03:13;;;;;;;10.27;9.25;;;15.40;79.30;;;14.24;100.00;96243.63;5025590;28;20095;-67
2022/08/24 05:05:45;;;;;;;10.55;9.45;;;15.40;79.00;;;14.27;100.00;96248.53;5009816;28;20048;-67
2022/08/24 05:08:11;;;;;;;12.43;10.07;;;15.40;78.90;;;14.30;100.00;96250.75;5009243;28;20026;-67
2022/08/24 05:10:38;;;;;;;11.50;10.38;;;15.50;78.90;;;14.31;100.00;96250.53;4987963;28;20442;-67
2022/08/24 05:13:05;;;;;;;12.32;9.98;;;15.50;79.00;;;14.34;100.00;96251.94;5001891;28;20052;-67
2022/08/24 05:15:30;;;;;;;11.15;10.05;;;15.50;79.00;;;14.35;100.00;96250.94;5008540;28;20038;-67
2022/08/24 05:17:56;;;;;;;11.80;10.65;;;15.60;79.00;;;14.38;100.00;96253.16;4976540;28;20038;-67
2022/08/24 05:20:22;;;;;;;11.80;10.70;;;15.60;79.30;;;14.40;100.00;96251.09;5009455;28;20026;-67
2022/08/24 05:22:50;;;;;;;11.73;10.52;;;15.60;79.40;;;14.44;100.00;96257.63;4998989;28;20034;-67
2022/08/24 05:25:16;;;;;;;11.13;10.05;;;15.70;79.40;;;14.49;100.00;96260.50;5025977;28;20040;-67
2022/08/24 05:27:42;;;;;;;11.38;10.18;;;15.70;79.40;;;14.57;100.00;96262.09;5028712;28;20030;-67
2022/08/24 05:30:09;;;;;;;10.35;9.23;;;15.90;79.20;;;14.63;100.00;96267.34;5028962;28;20064;-67
2022/08/24 05:32:36;;;;;;;11.45;9.82;;;16.00;79.10;;;14.70;100.00;96268.13;5024587;28;20056;-67
2022/08/24 05:35:03;;;;;;;10.82;9.77;;;16.10;78.80;;;14.79;100.00;96267.91;5008100;28;20446;-67
2022/08/24 05:37:30;;;;;;;11.27;9.43;;;16.10;78.40;;;14.85;100.00;96269.69;5028411;28;20041;-67
2022/08/24 05:39:56;;;;;;;10.57;9.40;;;16.20;78.00;;;14.92;100.00;96275.75;5011233;28;20480;-67
2022/08/24 05:42:22;;;;;;;9.73;8.82;;;16.30;77.90;;;14.99;100.00;96277.38;5045025;28;20033;-68
2022/08/24 05:44:48;;;;;;;9.55;8.55;;;16.40;77.70;;;15.09;100.00;96271.59;5012266;28;20124;-67
2022/08/24 05:47:13;;;;;;;9.30;8.40;;;16.50;77.70;;;15.20;100.00;96291.31;5028258;28;20079;-67
2022/08/24 05:49:39;;;;;;;9.48;8.18;;;16.60;77.30;;;15.30;100.00;96289.81;5043916;28;20037;-67
2022/08/24 05:52:05;;;;;;;9.50;7.97;;;16.70;77.00;;;15.40;100.00;96292.00;5028535;28;20064;-67
2022/08/24 05:54:31;;;;;;;10.40;8.13;;;16.90;76.60;;;15.52;100.00;96289.47;5028768;28;20038;-67
2022/08/24 05:57:03;;;;;;;9.77;8.23;;;17.00;76.40;;;15.61;100.00;96293.50;5028554;28;20038;-67
2022/08/24 05:59:29;;;;;;;8.82;7.93;;;17.10;76.20;;;15.72;100.00;96292.00;5011087;28;20409;-67
2022/08/24 06:01:55;;;;;;;8.30;7.40;;;17.20;75.30;;;15.79;100.00;96304.19;5025260;28;20037;-67
2022/08/24 06:04:21;;;;;;;7.70;6.90;;;17.30;74.80;;;15.89;100.00;96293.91;5008859;28;20054;-67
2022/08/24 06:06:47;;;;;;;8.40;6.32;;;17.50;73.90;;;15.96;100.00;96299.16;4992553;28;20034;-67
2022/08/24 06:09:13;;;;;;;12.40;5.93;;;17.50;73.20;;;16.05;100.00;96297.00;4992706;28;20038;-67
2022/08/24 06:11:39;;;;;;;7.72;5.82;;;17.60;73.20;;;16.14;100.00;96295.72;5028429;28;20109;-67
2022/08/24 06:14:12;;;;;;;6.00;5.40;;;17.70;72.40;;;16.24;100.00;96288.88;5028421;28;20105;-67
2022/08/24 06:16:40;;;;;;;8.98;4.95;;;17.80;71.80;;;16.35;100.00;96291.84;5011673;28;20060;-67
2022/08/24 06:19:06;;;;;;;6.13;5.15;;;18.00;71.40;;;16.42;99.79;96296.03;5011436;28;20048;-67
2022/08/24 06:21:32;;;;;;;6.30;5.05;;;18.10;70.60;;;16.50;97.97;96295.75;5011467;28;20029;-68
2022/08/24 06:23:58;;;;;;;6.53;4.50;;;18.10;69.00;;;16.56;96.96;96298.56;5028281;28;20466;-68
2022/08/24 06:29:08;;;;;;;5.97;4.47;;;18.10;68.00;;;16.66;94.49;96293.53;5027990;28;20124;-67
2022/08/24 06:31:41;;;;;;;6.05;4.63;;;18.20;68.10;;;16.73;93.76;96295.09;5012798;28;20061;-67
2022/08/24 06:34:11;;;;;;;6.35;4.55;;;18.30;68.10;;;16.80;93.21;96295.84;5015633;28;20034;-67
2022/08/24 06:36:37;;;;;;;7.87;4.30;;;18.30;67.70;;;16.88;93.10;96299.22;5027675;28;20378;-67
2022/08/24 06:39:03;;;;;;;5.05;4.40;;;18.40;67.40;;;16.95;93.14;96298.09;5024097;28;20121;-67
2022/08/24 06:41:29;;;;;;;7.82;4.47;;;18.50;67.80;;;17.01;93.02;96305.22;4954103;28;20436;-67
2022/08/24 06:43:55;;;;;;;8.88;5.35;;;18.60;68.00;;;17.08;92.21;96302.47;5014360;28;20026;-68
2022/08/24 06:46:20;;;;;;;6.60;4.78;;;18.60;67.60;;;17.12;92.17;96304.44;5028727;28;20113;-68
2022/08/24 06:48:46;;;;;;;6.50;4.90;;;18.60;67.20;;;17.20;91.59;96295.34;4995637;28;20042;-67
2022/08/24 06:51:15;;;;;;;5.72;4.97;;;18.70;67.30;;;17.29;91.34;96303.81;4995301;28;20084;-67
2022/08/24 06:53:41;;;;;;;8.48;5.05;;;18.80;67.10;;;17.34;90.15;96298.63;4992517;28;20040;-67
2022/08/24 06:56:07;;;;;;;8.05;4.65;;;18.80;65.90;;;17.41;90.45;96299.31;5028409;28;20076;-67
2022/08/24 06:58:33;;;;;;;7.00;4.53;;;19.00;66.80;;;17.49;90.50;96299.03;4995407;28;20479;-67
2022/08/24 07:01:14;;;;;;;6.22;4.90;;;19.00;66.20;;;17.55;88.91;96308.75;4995637;28;20140;-67
2022/08/24 07:03:39;;;;;;;;;;;19.00;65.80;;;17.58;89.28;96308.28;5008797;28;20136;-67
2022/08/24 07:06:06;;;;;;;6.72;4.47;;;19.10;66.20;;;17.64;89.19;96304.72;5030655;28;19936;-68
2022/08/24 07:08:32;;;;;;;8.68;5.10;;;19.20;65.10;;;17.75;88.46;96303.97;5011461;28;20030;-67
2022/08/24 07:10:57;;;;;;;7.20;4.80;;;19.40;65.40;;;17.87;88.39;96306.63;4979291;28;20056;-67
2022/08/24 07:13:24;;;;;;;4.07;3.50;;;19.50;65.10;;;17.98;88.30;96310.38;5022320;28;20532;-67
2022/08/24 07:15:50;;;;;;;6.10;3.63;;;19.60;63.80;;;18.10;86.64;96316.47;5014990;28;20030;-67
2022/08/24 07:18:16;;;;;;;9.38;4.00;;;19.80;63.20;;;18.23;86.47;96316.28;5014688;28;20141;-67
2022/08/24 07:20:42;;;;;;;4.68;4.00;;;20.00;63.10;;;18.41;86.28;96317.19;5014986;28;20401;-68
2022/08/24 07:23:08;;;;;;;6.07;3.70;;;20.20;62.50;;;18.55;85.53;96307.91;5013975;28;20033;-68
2022/08/24 07:25:34;;;;;;;7.10;3.97;;;20.40;61.90;;;18.75;84.91;96308.38;4997917;28;20053;-67
2022/08/24 07:28:00;;;;;;;9.98;3.83;;;20.70;61.70;;;18.92;85.26;96306.59;4998076;28;20057;-67
2022/08/24 07:30:27;;;;;;;6.38;3.75;;;20.90;61.50;;;19.14;84.22;96316.63;5014843;28;20056;-67
2022/08/24 07:32:53;;;;;;;5.43;3.58;;;21.10;60.40;;;19.34;82.79;96308.19;5008553;28;20034;-67
2022/08/24 07:35:19;;;;;;;6.32;3.50;;;21.40;59.00;;;19.55;81.98;96303.00;5027745;28;20030;-68
2022/08/24 07:37:44;;;;;;;7.82;3.80;;;21.80;58.30;;;19.76;81.13;96303.38;5010864;28;20045;-67
2022/08/24 07:40:11;;;;;;;6.90;3.47;;;22.00;56.80;;;19.97;80.94;96304.50;5017279;28;20562;-67
2022/08/24 07:42:38;;;;;;;6.35;3.30;;;22.30;56.70;;;20.20;80.38;96293.66;5005707;28;20029;-67
2022/08/24 07:45:05;;;;;;;6.18;2.97;;;22.60;55.90;;;20.43;79.10;96304.16;5032033;28;20033;-68
2022/08/24 07:47:31;;;;;;;6.95;3.20;;;22.80;54.10;;;20.66;77.56;96299.66;5030500;28;20045;-68
2022/08/24 07:49:57;;;;;;;7.43;3.22;;;23.10;53.60;;;20.88;77.57;96302.34;5023147;28;20411;-66
2022/08/24 07:52:22;;;;;;;4.82;2.65;;;23.40;54.10;;;21.15;78.00;96305.06;5011272;28;20089;-66
2022/08/24 07:54:48;;;;;;;3.92;2.90;;;23.80;54.00;;;21.43;76.33;96309.41;5011080;28;20030;-66
2022/08/24 07:57:14;;;;;;;6.25;2.95;;;24.10;51.50;;;21.67;75.33;96297.31;5010613;28;20057;-66
2022/08/24 07:59:40;;;;;;;6.18;2.53;;;24.40;51.50;;;21.92;74.27;96302.88;5009903;28;20048;-66
2022/08/24 08:02:07;;;;;;;3.95;3.03;;;24.60;50.60;;;22.14;74.18;96302.03;5010620;28;20041;-66
2022/08/24 08:04:32;;;;;;;7.63;2.60;;;24.80;50.80;;;22.37;74.04;96295.47;5010679;28;20030;-67
2022/08/24 08:07:00;;;;;;;3.70;3.22;;;25.10;51.00;;;22.61;73.47;96302.84;5010774;28;20034;-67
2022/08/24 08:09:26;;;;;;;3.80;2.80;;;25.30;50.20;;;22.82;73.37;96292.25;5009776;28;20048;-66
2022/08/24 08:11:52;;;;;;;3.60;2.42;;;25.60;49.80;;;23.04;72.00;96290.22;5002294;28;20056;-67
2022/08/24 08:14:17;;;;;;;3.40;2.70;;;25.90;49.80;;;23.25;72.53;96298.31;5010557;28;20529;-67
2022/08/24 08:16:43;;;;;;;4.28;3.35;;;26.10;50.30;;;23.48;71.64;96297.84;5010690;28;20034;-67
2022/08/24 08:19:09;;;;;;;3.90;2.65;;;26.40;48.90;;;23.70;71.22;96290.38;5009322;28;20080;-67
2022/08/24 08:24:41;;;;;;;4.82;2.80;;;26.90;48.40;;;24.17;69.47;96289.31;4999560;28;20112;-68
2022/08/24 08:27:07;;;;;;;4.45;2.63;;;27.30;47.50;;;24.40;69.87;96286.09;5001257;28;20687;-67
2022/08/24 08:29:33;;;;;;;2.85;2.13;;;27.60;47.00;;;24.62;69.08;96284.97;5003619;28;20098;-68
2022/08/24 08:31:59;;;;;;;5.10;2.20;;;27.80;46.50;;;24.75;69.00;96287.09;5029936;28;20022;-68
2022/08/24 08:34:25;;;;;;;4.32;2.00;;;27.90;46.70;;;24.97;69.13;96282.16;5030092;28;20037;-68
2022/08/24 08:36:51;;;;;;;3.15;2.08;;;28.30;47.10;;;25.22;67.93;96285.84;5025685;28;20026;-67
2022/08/24 08:39:19;;;;;;;3.60;2.30;;;28.50;44.90;;;25.41;66.50;96289.50;4993969;28;20044;-68
2022/08/24 08:42:20;;;;;;;4.05;2.75;;;28.70;44.70;;;25.59;62.82;96291.56;5010089;28;20048;-68
2022/08/24 08:45:07;;;;;;;4.40;2.30;;;28.70;43.90;;;25.81;64.47;96291.16;5029666;28;20485;-68
2022/08/24 08:47:42;;;;;;;4.28;2.55;;;29.10;44.90;;;25.98;64.57;96293.44;5028246;28;20457;-68
2022/08/24 08:50:27;;;;;;;3.80;2.42;;;29.30;43.80;;;26.21;65.06;96284.59;5030850;28;20041;-68
2022/08/24 08:53:16;;;;;;;3.47;2.33;;;29.60;44.50;;;26.55;63.38;96286.47;5030884;28;20056;-68
2022/08/24 08:56:14;;;;;;;4.15;2.40;;;30.00;44.20;;;26.80;61.13;96278.09;5026086;28;20026;-67
2022/08/24 08:59:23;;;;;;;3.53;2.78;;;30.20;43.30;;;27.06;61.42;96280.53;5011714;28;20568;-68
2022/08/24 09:02:24;;;;;;;2.80;2.10;;;30.40;43.10;;;27.28;60.30;96278.06;5010817;28;20045;-67
2022/08/24 09:05:19;;;;;;;4.07;2.63;;;30.70;41.60;;;27.55;59.85;96282.00;5012651;28;20034;-68
2022/08/24 09:07:56;;;;;;;4.75;2.08;;;30.80;41.90;;;27.75;59.88;96287.16;5023870;28;20057;-68
2022/08/24 09:10:55;;;;;;;3.35;2.42;;;31.10;41.40;;;27.98;56.87;96286.25;5028992;28;20029;-68
2022/08/24 09:14:28;;;;;;;5.33;2.20;;;31.20;40.20;;;28.25;56.17;96276.63;5027161;28;20034;-68
2022/08/24 09:17:08;;;;;;;3.45;1.83;;;31.50;39.70;;;28.41;56.01;96277.97;5008832;28;20033;-68
2022/08/24 09:19:39;;;;;;;;;;;31.60;39.70;;;28.59;54.96;96274.38;5028556;28;20030;-65
2022/08/24 09:22:13;;;;;;;4.50;2.20;;;31.70;39.20;;;28.85;55.46;96276.59;5029131;28;19967;-67
2022/08/24 09:24:54;;;;;;;2.97;1.90;;;32.00;39.20;;;29.09;53.77;96271.81;5029108;28;20033;-68
2022/08/24 09:27:48;;;;;;;3.08;1.70;;;32.30;38.70;;;29.33;51.76;96278.88;5019317;28;20062;-68
2022/08/24 09:30:13;;;;;;;3.10;2.08;;;32.60;37.30;;;29.54;54.48;96277.38;5029194;28;20448;-68
2022/08/24 09:32:58;;;;;;;4.22;1.90;;;32.80;36.70;;;29.81;48.96;96271.03;5030311;28;20044;-68
2022/08/24 09:35:53;;;;;;;3.80;1.80;;;33.00;35.50;;;30.04;48.40;96275.38;5026729;28;20100;-68
2022/08/24 09:39:02;;;;;;;3.22;1.73;;;33.40;35.60;;;30.20;48.50;96262.25;5009952;28;20041;-68
2022/08/24 09:41:57;;;;;;;4.05;1.67;;;33.50;36.20;;;30.42;49.68;96270.34;5007848;28;20034;-68
2022/08/24 09:45:16;;;;;;;3.75;1.70;;;34.00;36.00;;;30.82;49.91;96278.53;5010220;28;20025;-68
2022/08/24 09:48:35;;;;;;;3.17;1.75;;;34.20;36.40;;;31.19;48.81;96266.34;5015230;28;20037;-68
2022/08/24 09:51:35;;;;;;;2.88;1.58;;;34.80;35.00;;;31.54;46.25;96259.06;5018742;28;20081;-69
2022/08/24 09:54:25;;;;;;;3.30;2.15;;;35.40;33.90;;;31.80;46.43;96261.81;5023732;28;20049;-69
2022/08/24 09:57:14;;;;;;;2.45;1.60;;;35.80;33.70;;;32.02;45.55;96255.38;5029064;28;20044;-68
2022/08/24 10:00:10;;;;;;;2.28;1.50;;;36.10;32.10;;;32.36;45.40;96261.88;5011273;28;20489;-68
2022/08/24 10:02:59;;;;;;;3.80;2.05;;;36.80;32.00;;;32.61;43.34;96252.06;5028751;28;20075;-69
2022/08/24 10:05:50;;;;;;;4.90;1.55;;;37.00;30.30;;;32.70;43.66;96259.06;5027191;28;20034;-69
2022/08/24 10:08:43;;;;;;;1.65;1.30;;;37.00;30.70;;;33.00;42.18;96245.47;5020630;28;20400;-69
2022/08/24 10:11:26;;;;;;;1.83;1.20;;;37.80;30.10;;;33.25;41.12;96241.78;5005252;28;20045;-69
2022/08/24 10:14:48;;;;;;;2.67;1.30;;;38.40;28.70;;;33.57;39.79;96243.03;5009764;28;20033;-69
2022/08/24 10:17:55;;;;;;;4.20;1.50;;;38.90;27.70;;;33.90;40.56;96247.75;5017096;28;20116;-69
2022/08/24 10:20:23;;;;;;;2.80;1.38;;;39.50;27.90;;;34.17;42.19;96249.09;5028597;28;20033;-68
2022/08/24 10:23:47;;;;;;;2.67;1.30;;;40.10;27.60;;;34.53;38.14;96235.56;5012321;28;20045;-69
2022/08/24 10:26:22;;;;;;;2.40;1.45;;;40.50;25.70;;;34.85;37.63;96238.53;5019692;28;20053;-68
2022/08/24 10:29:41;;;;;;;3.65;1.38;;;41.10;25.00;;;35.29;37.87;96228.59;4988962;28;20066;-68
2022/08/24 10:32:25;;;;;;;2.15;1.13;;;41.60;25.70;;;35.63;37.18;96229.22;5023673;28;20045;-68
2022/08/24 10:35:09;;;;;;;2.08;1.45;;;42.10;24.70;;;36.01;36.57;96234.25;5028113;28;20026;-67
2022/08/24 10:39:39;;;;;;;2.88;1.48;;;42.50;24.50;;;36.23;35.16;96227.41;5027525;28;20030;-67
2022/08/24 10:40:57;;;;;;;3.13;1.20;;;42.60;23.70;;;36.43;35.37;96232.66;5027022;28;20452;-68